createdAt,value
2022-12-01T00:03:26.286Z,13.60
2022-12-01T00:08:29.383Z,14.23
2022-12-01T00:13:32.198Z,13.13
2022-12-01T00:18:34.311Z,12.88
2022-12-01T00:23:36.567Z,13.50
2022-12-01T00:28:39.231Z,11.70
2022-12-01T00:33:41.369Z,11.85
2022-12-01T00:38:43.658Z,10.90
2022-12-01T00:43:45.721Z,11.77
2022-12-01T00:48:48.182Z,11.43
2022-12-01T00:53:50.364Z,12.25
2022-12-01T00:58:52.545Z,12.70
2022-12-01T01:03:54.643Z,12.40
2022-12-01T01:08:56.742Z,11.60
2022-12-01T01:13:59.611Z,11.40
2022-12-01T01:19:01.693Z,10.77
2022-12-01T01:24:04.000Z,11.12
2022-12-01T01:29:07.783Z,11.17
2022-12-01T01:34:09.876Z,11.23
2022-12-01T01:39:12.009Z,10.07
2022-12-01T01:44:45.323Z,10.25
2022-12-01T01:49:48.884Z,9.00
2022-12-01T01:54:53.921Z,9.40
2022-12-01T02:00:02.255Z,9.70
2022-12-01T02:05:10.951Z,8.93
2022-12-01T02:10:14.718Z,9.35
2022-12-01T02:15:19.849Z,9.13
2022-12-01T02:20:59.657Z,9.30
2022-12-01T02:26:29.701Z,9.35
2022-12-01T02:32:05.211Z,9.27
2022-12-01T02:37:13.118Z,8.98
2022-12-01T02:42:40.284Z,9.63
2022-12-01T02:47:44.841Z,8.87
2022-12-01T02:52:47.731Z,9.18
2022-12-01T02:57:49.801Z,10.20
2022-12-01T03:03:26.753Z,9.90
2022-12-01T03:08:34.603Z,10.48
2022-12-01T03:14:11.345Z,9.00
2022-12-01T03:19:23.098Z,10.80
2022-12-01T03:24:29.446Z,10.57
2022-12-01T03:29:43.491Z,10.05
2022-12-01T03:34:59.592Z,10.00
2022-12-01T03:40:06.392Z,9.67
2022-12-01T03:45:16.147Z,10.00
2022-12-01T03:50:18.970Z,10.87
2022-12-01T03:55:24.847Z,9.88
2022-12-01T04:00:27.098Z,10.75
2022-12-01T04:05:29.856Z,9.67
2022-12-01T04:10:33.102Z,9.80
2022-12-01T04:15:35.181Z,9.43
2022-12-01T04:20:37.318Z,9.18
2022-12-01T04:25:39.387Z,8.25
2022-12-01T04:30:41.459Z,9.00
2022-12-01T04:35:43.567Z,10.05
2022-12-01T04:40:45.649Z,9.57
2022-12-01T04:45:48.369Z,9.48
2022-12-01T04:50:50.540Z,8.90
2022-12-01T04:55:52.651Z,9.83
2022-12-01T05:00:54.933Z,9.00
2022-12-01T05:06:09.362Z,10.33
2022-12-01T05:11:13.389Z,10.15
2022-12-01T05:16:22.317Z,9.05
2022-12-01T05:21:24.501Z,11.27
2022-12-01T05:26:26.599Z,10.20
2022-12-01T05:31:28.877Z,10.20
2022-12-01T05:36:31.575Z,10.75
2022-12-01T05:41:33.670Z,11.52
2022-12-01T05:46:35.769Z,11.70
2022-12-01T05:51:37.851Z,11.85
2022-12-01T05:56:39.964Z,11.17
2022-12-01T06:01:42.141Z,12.63
2022-12-01T06:06:44.570Z,12.63
2022-12-01T06:11:51.220Z,13.30
2022-12-01T06:16:54.572Z,16.23
2022-12-01T06:22:03.698Z,16.20
2022-12-01T06:27:06.064Z,17.52
2022-12-01T06:32:08.207Z,17.00
2022-12-01T06:37:11.427Z,17.73
2022-12-01T06:42:13.596Z,17.92
2022-12-01T06:47:16.019Z,16.67
2022-12-01T06:52:18.175Z,17.20
2022-12-01T06:57:20.403Z,17.10
2022-12-01T07:02:23.169Z,16.33
2022-12-01T07:07:25.485Z,17.42
2022-12-01T07:12:31.607Z,17.07
2022-12-01T07:17:34.701Z,16.55
2022-12-01T07:22:36.797Z,16.65
2022-12-01T07:27:38.889Z,15.80
2022-12-01T07:32:40.998Z,15.57
2022-12-01T07:37:43.089Z,17.00
2022-12-01T07:42:45.205Z,15.95
2022-12-01T07:47:47.298Z,16.37
2022-12-01T07:52:50.927Z,15.90
2022-12-01T07:57:53.683Z,14.38
2022-12-01T08:02:55.797Z,14.33
2022-12-01T08:07:57.916Z,14.93
2022-12-01T08:13:00.147Z,15.07
2022-12-01T08:18:02.503Z,15.27
2022-12-01T08:23:04.938Z,17.27
2022-12-01T08:28:07.143Z,15.43
2022-12-01T08:33:09.241Z,16.30
2022-12-01T08:38:12.242Z,15.77
2022-12-01T08:43:34.796Z,15.23
2022-12-01T08:48:36.865Z,14.87
2022-12-01T08:53:45.524Z,16.27
2022-12-01T08:58:48.057Z,14.40
2022-12-01T09:04:05.647Z,15.25
2022-12-01T09:09:12.561Z,15.73
2022-12-01T09:14:16.927Z,16.42
2022-12-01T09:19:23.956Z,17.37
2022-12-01T09:24:26.650Z,16.90
2022-12-01T09:29:29.355Z,16.77
2022-12-01T09:34:31.552Z,15.70
2022-12-01T09:39:33.734Z,15.55
2022-12-01T09:44:44.044Z,16.83
2022-12-01T09:50:06.961Z,14.98
2022-12-01T09:55:13.744Z,16.80
2022-12-01T10:00:21.131Z,15.83
2022-12-01T10:05:26.858Z,14.85
2022-12-01T10:10:34.547Z,14.77
2022-12-01T10:16:08.835Z,16.20
2022-12-01T10:21:40.155Z,16.23
2022-12-01T10:27:04.105Z,14.30
2022-12-01T10:32:20.563Z,14.13
2022-12-01T10:37:26.380Z,12.87
2022-12-01T10:42:36.862Z,15.73
2022-12-01T10:48:15.915Z,16.05
2022-12-01T10:53:28.288Z,15.23
2022-12-01T10:58:33.857Z,15.05
2022-12-01T11:03:36.942Z,14.73
2022-12-01T11:08:40.668Z,15.32
2022-12-01T11:13:43.375Z,13.75
2022-12-01T11:18:45.514Z,14.37
2022-12-01T11:23:50.568Z,13.43
2022-12-01T11:29:04.742Z,13.60
2022-12-01T11:34:20.652Z,14.23
2022-12-01T11:39:25.510Z,14.27
2022-12-01T11:44:50.356Z,12.43
2022-12-01T11:50:00.076Z,14.23
2022-12-01T11:55:11.166Z,12.70
2022-12-01T12:00:13.860Z,12.93
2022-12-01T12:05:40.374Z,11.82
2022-12-01T12:11:19.452Z,11.93
2022-12-01T12:16:56.752Z,12.50
2022-12-01T12:22:10.962Z,12.53
2022-12-01T12:27:34.886Z,12.20
2022-12-01T12:33:04.309Z,10.75
2022-12-01T12:38:15.457Z,11.57
2022-12-01T12:43:56.668Z,11.43
2022-12-01T12:49:25.668Z,10.97
2022-12-01T12:54:33.809Z,10.70
2022-12-01T12:59:52.009Z,10.93
2022-12-01T13:05:16.857Z,10.93
2022-12-01T13:10:35.740Z,10.70
2022-12-01T13:15:39.093Z,10.27
2022-12-01T13:20:41.727Z,10.27
2022-12-01T13:25:47.842Z,10.07
2022-12-01T13:31:18.184Z,9.50
2022-12-01T13:36:45.721Z,10.00
2022-12-01T13:41:45.468Z,9.33
2022-12-01T13:46:47.613Z,9.90
2022-12-01T13:52:21.077Z,9.68
2022-12-01T13:57:27.805Z,8.80
2022-12-01T14:02:33.141Z,9.63
2022-12-01T14:07:38.321Z,9.47
2022-12-01T14:12:46.020Z,8.98
2022-12-01T14:17:58.391Z,9.60
2022-12-01T14:23:36.223Z,8.70
2022-12-01T14:29:01.491Z,9.45
2022-12-01T14:34:13.155Z,8.60
2022-12-01T14:39:35.174Z,9.50
2022-12-01T14:44:49.797Z,8.93
2022-12-01T14:50:11.897Z,8.67
2022-12-01T14:55:21.151Z,9.32
2022-12-01T15:00:25.116Z,11.43
2022-12-01T15:05:29.557Z,12.25
2022-12-01T15:10:37.191Z,12.37
2022-12-01T15:15:53.432Z,11.20
2022-12-01T15:21:03.940Z,12.15
2022-12-01T15:26:06.989Z,11.50
2022-12-01T15:31:13.092Z,11.23
2022-12-01T15:36:15.766Z,11.35
2022-12-01T15:41:30.663Z,10.63
2022-12-01T15:46:36.970Z,10.40
2022-12-01T15:51:39.084Z,10.73
2022-12-01T15:56:41.461Z,10.13
2022-12-01T16:01:44.665Z,11.40
2022-12-01T16:07:16.038Z,11.23
2022-12-01T16:12:18.063Z,11.15
2022-12-01T16:17:20.835Z,11.20
2022-12-01T16:22:23.139Z,12.10
2022-12-01T16:27:30.385Z,11.00
2022-12-01T16:32:35.155Z,11.43
2022-12-01T16:37:37.253Z,12.02
2022-12-01T16:42:39.733Z,12.37
2022-12-01T16:47:42.719Z,12.37
2022-12-01T16:52:45.892Z,12.60
2022-12-01T16:57:48.296Z,11.30
2022-12-01T17:02:51.016Z,11.52
2022-12-01T17:07:53.466Z,11.53
2022-12-01T17:12:55.612Z,10.82
2022-12-01T17:17:57.736Z,12.37
2022-12-01T17:22:59.885Z,12.50
2022-12-01T17:28:02.027Z,13.02
2022-12-01T17:33:04.305Z,12.80
2022-12-01T17:38:06.860Z,13.00
2022-12-01T17:43:09.333Z,12.80
2022-12-01T17:48:11.425Z,13.67
2022-12-01T17:53:13.574Z,14.65
2022-12-01T17:58:18.215Z,14.50
2022-12-01T18:03:21.407Z,13.60
2022-12-01T18:08:25.552Z,14.25
2022-12-01T18:13:27.969Z,14.30
2022-12-01T18:18:30.133Z,16.20
2022-12-01T18:23:32.378Z,16.37
2022-12-01T18:28:35.136Z,16.55
2022-12-01T18:33:40.242Z,16.35
2022-12-01T18:38:42.328Z,16.77
2022-12-01T18:43:45.102Z,18.75
2022-12-01T18:48:49.457Z,18.63
2022-12-01T18:53:54.614Z,20.17
2022-12-01T18:58:58.760Z,18.40
2022-12-01T19:04:02.066Z,17.80
2022-12-01T19:09:06.301Z,17.60
2022-12-01T19:14:16.425Z,18.67
2022-12-01T19:19:18.776Z,18.15
2022-12-01T19:24:20.999Z,19.10
2022-12-01T19:29:23.262Z,19.53
2022-12-01T19:34:26.072Z,19.45
2022-12-01T19:39:28.428Z,20.87
2022-12-01T19:44:31.837Z,20.35
2022-12-01T19:49:36.547Z,21.20
2022-12-01T19:54:39.292Z,21.00
2022-12-01T19:59:41.536Z,21.75
2022-12-01T20:04:43.773Z,21.70
2022-12-01T20:09:49.910Z,21.23
2022-12-01T20:14:52.716Z,21.12
2022-12-01T20:19:55.203Z,20.47
2022-12-01T20:24:57.344Z,22.05
2022-12-01T20:29:59.857Z,21.17
2022-12-01T20:35:02.055Z,21.37
2022-12-01T20:40:04.665Z,21.40
2022-12-01T20:45:07.527Z,20.37
2022-12-01T20:50:10.269Z,21.35
2022-12-01T20:55:12.388Z,21.33
2022-12-01T21:00:15.067Z,21.77
2022-12-01T21:05:17.231Z,22.10
2022-12-01T21:10:20.358Z,21.83
2022-12-01T21:15:31.411Z,22.73
2022-12-01T21:20:39.312Z,22.37
2022-12-01T21:25:42.610Z,22.40
2022-12-01T21:30:46.334Z,23.15
2022-12-01T21:35:51.761Z,22.70
2022-12-01T21:40:54.250Z,24.75
2022-12-01T21:46:00.718Z,25.60
2022-12-01T21:51:12.178Z,23.90
2022-12-01T21:56:34.521Z,23.92
2022-12-01T22:01:36.837Z,23.17
2022-12-01T22:06:43.250Z,23.48
2022-12-01T22:11:49.371Z,22.80
2022-12-01T22:17:09.134Z,24.23
2022-12-01T22:22:11.688Z,22.83
2022-12-01T22:27:39.276Z,23.47
2022-12-01T22:32:56.193Z,24.73
2022-12-01T22:37:59.828Z,23.43
2022-12-01T22:43:17.274Z,24.15
2022-12-01T22:48:22.263Z,23.20
2022-12-01T22:53:31.317Z,23.00
2022-12-01T22:58:39.838Z,25.12
2022-12-01T23:03:41.919Z,24.93
2022-12-01T23:08:44.017Z,23.67
2022-12-01T23:13:46.091Z,25.23
2022-12-01T23:18:48.139Z,22.83
2022-12-01T23:23:50.259Z,23.75
2022-12-01T23:28:52.339Z,23.40
2022-12-01T23:33:54.488Z,22.87
2022-12-01T23:39:01.446Z,22.65
2022-12-01T23:44:40.731Z,23.47
2022-12-01T23:49:44.785Z,23.62
2022-12-01T23:54:47.403Z,23.50
2022-12-01T23:59:56.298Z,25.77
